sensor_id;sensor_type;location;lat;lon;timestamp;P1;durP1;ratioP1;P2;durP2;ratioP2
73823;SDS011;62154;54.914;73.444;2022-11-20T00:01:33;34.97;;;9.52;;
73823;SDS011;62154;54.914;73.444;2022-11-20T00:04:00;38.90;;;11.88;;
73823;SDS011;62154;54.914;73.444;2022-11-20T00:06:28;31.88;;;11.52;;
73823;SDS011;62154;54.914;73.444;2022-11-20T00:08:56;26.65;;;9.02;;
73823;SDS011;62154;54.914;73.444;2022-11-20T00:11:27;29.52;;;8.45;;
73823;SDS011;62154;54.914;73.444;2022-11-20T00:13:57;14.82;;;7.32;;
73823;SDS011;62154;54.914;73.444;2022-11-20T00:16:27;22.80;;;6.47;;
73823;SDS011;62154;54.914;73.444;2022-11-20T00:18:56;22.52;;;8.00;;
73823;SDS011;62154;54.914;73.444;2022-11-20T00:21:27;22.10;;;8.52;;
73823;SDS011;62154;54.914;73.444;2022-11-20T00:23:59;20.15;;;8.15;;
73823;SDS011;62154;54.914;73.444;2022-11-20T00:26:28;22.17;;;8.52;;
73823;SDS011;62154;54.914;73.444;2022-11-20T00:28:57;42.95;;;10.95;;
73823;SDS011;62154;54.914;73.444;2022-11-20T00:31:25;36.67;;;12.13;;
73823;SDS011;62154;54.914;73.444;2022-11-20T00:33:53;26.77;;;10.15;;
73823;SDS011;62154;54.914;73.444;2022-11-20T00:36:24;28.70;;;11.80;;
73823;SDS011;62154;54.914;73.444;2022-11-20T00:38:58;32.25;;;11.40;;
73823;SDS011;62154;54.914;73.444;2022-11-20T00:41:30;32.33;;;9.60;;
73823;SDS011;62154;54.914;73.444;2022-11-20T00:43:57;27.60;;;10.63;;
73823;SDS011;62154;54.914;73.444;2022-11-20T00:46:25;32.58;;;10.20;;
73823;SDS011;62154;54.914;73.444;2022-11-20T00:48:53;31.45;;;11.18;;
73823;SDS011;62154;54.914;73.444;2022-11-20T00:51:22;36.72;;;14.40;;
73823;SDS011;62154;54.914;73.444;2022-11-20T00:53:57;31.60;;;11.05;;
73823;SDS011;62154;54.914;73.444;2022-11-20T00:56:26;43.65;;;13.90;;
73823;SDS011;62154;54.914;73.444;2022-11-20T00:58:58;53.95;;;18.25;;
73823;SDS011;62154;54.914;73.444;2022-11-20T01:01:27;54.58;;;17.40;;
73823;SDS011;62154;54.914;73.444;2022-11-20T01:03:58;42.97;;;16.45;;
73823;SDS011;62154;54.914;73.444;2022-11-20T01:06:35;62.55;;;19.77;;
73823;SDS011;62154;54.914;73.444;2022-11-20T01:09:10;90.18;;;25.63;;
73823;SDS011;62154;54.914;73.444;2022-11-20T01:11:41;95.85;;;35.03;;
73823;SDS011;62154;54.914;73.444;2022-11-20T01:14:18;134.63;;;46.03;;
73823;SDS011;62154;54.914;73.444;2022-11-20T01:16:47;112.63;;;36.25;;
73823;SDS011;62154;54.914;73.444;2022-11-20T01:19:17;96.65;;;32.67;;
73823;SDS011;62154;54.914;73.444;2022-11-20T01:21:48;96.03;;;36.47;;
73823;SDS011;62154;54.914;73.444;2022-11-20T01:24:17;91.15;;;35.25;;
73823;SDS011;62154;54.914;73.444;2022-11-20T01:26:47;74.88;;;29.55;;
73823;SDS011;62154;54.914;73.444;2022-11-20T01:29:16;76.65;;;27.02;;
73823;SDS011;62154;54.914;73.444;2022-11-20T01:31:48;75.43;;;29.27;;
73823;SDS011;62154;54.914;73.444;2022-11-20T01:34:27;102.57;;;38.03;;
73823;SDS011;62154;54.914;73.444;2022-11-20T01:36:54;99.93;;;34.75;;
73823;SDS011;62154;54.914;73.444;2022-11-20T01:39:25;165.18;;;52.20;;
73823;SDS011;62154;54.914;73.444;2022-11-20T01:41:53;70.20;;;26.67;;
73823;SDS011;62154;54.914;73.444;2022-11-20T01:44:47;66.50;;;25.77;;
73823;SDS011;62154;54.914;73.444;2022-11-20T01:47:24;53.00;;;18.65;;
73823;SDS011;62154;54.914;73.444;2022-11-20T01:50:13;116.60;;;44.72;;
73823;SDS011;62154;54.914;73.444;2022-11-20T01:53:01;126.90;;;47.50;;
73823;SDS011;62154;54.914;73.444;2022-11-20T01:55:32;142.63;;;56.45;;
73823;SDS011;62154;54.914;73.444;2022-11-20T01:58:03;100.20;;;40.55;;
73823;SDS011;62154;54.914;73.444;2022-11-20T02:00:31;103.55;;;43.40;;
73823;SDS011;62154;54.914;73.444;2022-11-20T02:03:03;79.63;;;34.85;;
73823;SDS011;62154;54.914;73.444;2022-11-20T02:08:05;69.63;;;26.27;;
73823;SDS011;62154;54.914;73.444;2022-11-20T02:10:38;62.85;;;24.55;;
73823;SDS011;62154;54.914;73.444;2022-11-20T02:13:06;134.02;;;38.80;;
73823;SDS011;62154;54.914;73.444;2022-11-20T02:16:02;177.82;;;48.20;;
73823;SDS011;62154;54.914;73.444;2022-11-20T02:18:30;244.88;;;67.28;;
73823;SDS011;62154;54.914;73.444;2022-11-20T02:21:01;217.25;;;60.00;;
73823;SDS011;62154;54.914;73.444;2022-11-20T02:23:56;128.80;;;39.47;;
73823;SDS011;62154;54.914;73.444;2022-11-20T02:26:25;98.28;;;28.73;;
73823;SDS011;62154;54.914;73.444;2022-11-20T02:28:54;74.55;;;23.70;;
73823;SDS011;62154;54.914;73.444;2022-11-20T02:31:24;66.95;;;21.45;;
73823;SDS011;62154;54.914;73.444;2022-11-20T02:33:56;71.05;;;20.63;;
73823;SDS011;62154;54.914;73.444;2022-11-20T02:36:26;110.18;;;31.45;;
73823;SDS011;62154;54.914;73.444;2022-11-20T02:38:54;113.55;;;32.47;;
73823;SDS011;62154;54.914;73.444;2022-11-20T02:41:35;110.30;;;32.85;;
73823;SDS011;62154;54.914;73.444;2022-11-20T02:44:14;80.07;;;25.83;;
73823;SDS011;62154;54.914;73.444;2022-11-20T02:46:46;67.82;;;24.83;;
73823;SDS011;62154;54.914;73.444;2022-11-20T02:49:13;45.85;;;18.55;;
73823;SDS011;62154;54.914;73.444;2022-11-20T02:51:40;48.47;;;17.08;;
73823;SDS011;62154;54.914;73.444;2022-11-20T02:54:10;31.45;;;12.45;;
73823;SDS011;62154;54.914;73.444;2022-11-20T02:56:40;28.17;;;12.50;;
73823;SDS011;62154;54.914;73.444;2022-11-20T02:59:17;28.20;;;10.70;;
73823;SDS011;62154;54.914;73.444;2022-11-20T03:01:45;32.45;;;11.75;;
73823;SDS011;62154;54.914;73.444;2022-11-20T03:04:22;32.42;;;13.02;;
73823;SDS011;62154;54.914;73.444;2022-11-20T03:06:49;33.25;;;14.80;;
73823;SDS011;62154;54.914;73.444;2022-11-20T03:09:16;33.30;;;13.85;;
73823;SDS011;62154;54.914;73.444;2022-11-20T03:11:54;34.45;;;12.18;;
73823;SDS011;62154;54.914;73.444;2022-11-20T03:14:21;34.55;;;13.18;;
73823;SDS011;62154;54.914;73.444;2022-11-20T03:16:48;39.95;;;16.00;;
73823;SDS011;62154;54.914;73.444;2022-11-20T03:19:16;48.25;;;20.38;;
73823;SDS011;62154;54.914;73.444;2022-11-20T03:21:43;78.28;;;28.23;;
73823;SDS011;62154;54.914;73.444;2022-11-20T03:24:10;115.18;;;44.13;;
73823;SDS011;62154;54.914;73.444;2022-11-20T03:26:38;163.63;;;56.75;;
73823;SDS011;62154;54.914;73.444;2022-11-20T03:29:06;232.25;;;71.50;;
73823;SDS011;62154;54.914;73.444;2022-11-20T03:31:37;192.98;;;62.05;;
73823;SDS011;62154;54.914;73.444;2022-11-20T03:34:09;161.90;;;52.63;;
73823;SDS011;62154;54.914;73.444;2022-11-20T03:36:39;136.73;;;42.83;;
73823;SDS011;62154;54.914;73.444;2022-11-20T03:39:08;103.88;;;33.20;;
73823;SDS011;62154;54.914;73.444;2022-11-20T03:41:36;73.05;;;28.20;;
73823;SDS011;62154;54.914;73.444;2022-11-20T03:44:06;71.18;;;23.75;;
73823;SDS011;62154;54.914;73.444;2022-11-20T03:46:35;63.85;;;21.42;;
73823;SDS011;62154;54.914;73.444;2022-11-20T03:49:02;37.70;;;16.70;;
73823;SDS011;62154;54.914;73.444;2022-11-20T03:51:39;48.67;;;18.27;;
73823;SDS011;62154;54.914;73.444;2022-11-20T03:54:07;31.83;;;13.63;;
73823;SDS011;62154;54.914;73.444;2022-11-20T03:56:36;35.95;;;14.02;;
73823;SDS011;62154;54.914;73.444;2022-11-20T03:59:05;53.70;;;18.98;;
73823;SDS011;62154;54.914;73.444;2022-11-20T04:01:34;45.83;;;19.45;;
73823;SDS011;62154;54.914;73.444;2022-11-20T04:04:04;51.63;;;19.42;;
73823;SDS011;62154;54.914;73.444;2022-11-20T04:06:36;59.55;;;21.70;;
73823;SDS011;62154;54.914;73.444;2022-11-20T04:09:04;55.92;;;22.27;;
73823;SDS011;62154;54.914;73.444;2022-11-20T04:11:35;56.97;;;22.27;;
73823;SDS011;62154;54.914;73.444;2022-11-20T04:14:04;70.72;;;21.33;;
73823;SDS011;62154;54.914;73.444;2022-11-20T04:16:34;65.38;;;22.00;;
73823;SDS011;62154;54.914;73.444;2022-11-20T04:19:08;61.95;;;20.23;;
73823;SDS011;62154;54.914;73.444;2022-11-20T04:21:37;75.90;;;22.45;;
73823;SDS011;62154;54.914;73.444;2022-11-20T04:24:05;80.90;;;26.90;;
73823;SDS011;62154;54.914;73.444;2022-11-20T04:26:40;67.30;;;23.70;;
73823;SDS011;62154;54.914;73.444;2022-11-20T04:29:09;117.88;;;33.63;;
73823;SDS011;62154;54.914;73.444;2022-11-20T04:31:38;58.80;;;20.85;;
73823;SDS011;62154;54.914;73.444;2022-11-20T04:34:05;54.08;;;17.25;;
73823;SDS011;62154;54.914;73.444;2022-11-20T04:36:33;39.60;;;14.80;;
73823;SDS011;62154;54.914;73.444;2022-11-20T04:39:03;53.10;;;18.52;;
73823;SDS011;62154;54.914;73.444;2022-11-20T04:41:33;48.45;;;16.80;;
73823;SDS011;62154;54.914;73.444;2022-11-20T04:44:06;66.30;;;22.02;;
73823;SDS011;62154;54.914;73.444;2022-11-20T04:46:38;95.30;;;30.08;;
73823;SDS011;62154;54.914;73.444;2022-11-20T04:49:07;82.50;;;25.33;;
73823;SDS011;62154;54.914;73.444;2022-11-20T04:51:34;85.05;;;25.10;;
73823;SDS011;62154;54.914;73.444;2022-11-20T04:54:02;66.45;;;22.48;;
73823;SDS011;62154;54.914;73.444;2022-11-20T04:56:34;64.85;;;19.65;;
73823;SDS011;62154;54.914;73.444;2022-11-20T04:59:11;59.92;;;21.85;;
73823;SDS011;62154;54.914;73.444;2022-11-20T05:01:49;60.05;;;22.52;;
73823;SDS011;62154;54.914;73.444;2022-11-20T05:04:16;54.97;;;20.75;;
73823;SDS011;62154;54.914;73.444;2022-11-20T05:06:49;61.92;;;22.27;;
73823;SDS011;62154;54.914;73.444;2022-11-20T05:09:21;72.25;;;23.10;;
73823;SDS011;62154;54.914;73.444;2022-11-20T05:11:49;54.05;;;17.27;;
73823;SDS011;62154;54.914;73.444;2022-11-20T05:14:16;54.53;;;17.02;;
73823;SDS011;62154;54.914;73.444;2022-11-20T05:16:43;60.08;;;21.17;;
73823;SDS011;62154;54.914;73.444;2022-11-20T05:19:11;78.32;;;25.20;;
73823;SDS011;62154;54.914;73.444;2022-11-20T05:21:48;77.55;;;26.08;;
73823;SDS011;62154;54.914;73.444;2022-11-20T05:24:16;46.63;;;17.65;;
73823;SDS011;62154;54.914;73.444;2022-11-20T05:26:42;59.83;;;22.20;;
73823;SDS011;62154;54.914;73.444;2022-11-20T05:29:10;46.78;;;15.65;;
73823;SDS011;62154;54.914;73.444;2022-11-20T05:31:38;53.47;;;17.08;;
73823;SDS011;62154;54.914;73.444;2022-11-20T05:34:07;91.60;;;26.77;;
73823;SDS011;62154;54.914;73.444;2022-11-20T05:36:34;82.20;;;29.90;;
73823;SDS011;62154;54.914;73.444;2022-11-20T05:39:06;40.45;;;15.15;;
73823;SDS011;62154;54.914;73.444;2022-11-20T05:41:34;45.78;;;19.40;;
73823;SDS011;62154;54.914;73.444;2022-11-20T05:44:01;50.05;;;15.00;;
73823;SDS011;62154;54.914;73.444;2022-11-20T05:46:29;51.20;;;12.80;;
73823;SDS011;62154;54.914;73.444;2022-11-20T05:48:56;33.22;;;10.63;;
73823;SDS011;62154;54.914;73.444;2022-11-20T05:51:24;58.47;;;16.58;;
73823;SDS011;62154;54.914;73.444;2022-11-20T05:54:00;66.32;;;19.67;;
73823;SDS011;62154;54.914;73.444;2022-11-20T05:56:27;30.52;;;10.75;;
73823;SDS011;62154;54.914;73.444;2022-11-20T05:58:55;82.00;;;21.23;;
73823;SDS011;62154;54.914;73.444;2022-11-20T06:01:24;59.10;;;17.15;;
73823;SDS011;62154;54.914;73.444;2022-11-20T06:03:53;33.97;;;10.55;;
73823;SDS011;62154;54.914;73.444;2022-11-20T06:06:20;37.33;;;11.15;;
73823;SDS011;62154;54.914;73.444;2022-11-20T06:08:49;68.57;;;18.35;;
73823;SDS011;62154;54.914;73.444;2022-11-20T06:11:16;53.80;;;13.80;;
73823;SDS011;62154;54.914;73.444;2022-11-20T06:13:45;66.22;;;17.73;;
73823;SDS011;62154;54.914;73.444;2022-11-20T06:16:19;35.72;;;11.15;;
73823;SDS011;62154;54.914;73.444;2022-11-20T06:18:47;32.03;;;9.40;;
73823;SDS011;62154;54.914;73.444;2022-11-20T06:21:16;46.15;;;12.82;;
73823;SDS011;62154;54.914;73.444;2022-11-20T06:23:45;23.08;;;7.47;;
73823;SDS011;62154;54.914;73.444;2022-11-20T06:26:15;36.35;;;10.52;;
73823;SDS011;62154;54.914;73.444;2022-11-20T06:28:46;16.27;;;6.03;;
73823;SDS011;62154;54.914;73.444;2022-11-20T06:31:14;9.98;;;3.55;;
73823;SDS011;62154;54.914;73.444;2022-11-20T06:33:43;18.50;;;6.88;;
73823;SDS011;62154;54.914;73.444;2022-11-20T06:36:11;14.00;;;5.25;;
73823;SDS011;62154;54.914;73.444;2022-11-20T06:38:40;19.02;;;6.05;;
73823;SDS011;62154;54.914;73.444;2022-11-20T06:41:12;16.77;;;7.28;;
73823;SDS011;62154;54.914;73.444;2022-11-20T06:43:46;18.35;;;7.18;;
73823;SDS011;62154;54.914;73.444;2022-11-20T06:46:13;10.20;;;4.15;;
73823;SDS011;62154;54.914;73.444;2022-11-20T06:48:46;11.13;;;5.30;;
73823;SDS011;62154;54.914;73.444;2022-11-20T06:51:17;9.18;;;4.03;;
73823;SDS011;62154;54.914;73.444;2022-11-20T06:53:44;7.93;;;3.63;;
73823;SDS011;62154;54.914;73.444;2022-11-20T06:56:15;11.70;;;4.55;;
73823;SDS011;62154;54.914;73.444;2022-11-20T06:58:42;14.38;;;5.10;;
73823;SDS011;62154;54.914;73.444;2022-11-20T07:01:16;20.48;;;6.45;;
73823;SDS011;62154;54.914;73.444;2022-11-20T07:03:43;10.10;;;3.67;;
73823;SDS011;62154;54.914;73.444;2022-11-20T07:06:10;25.38;;;8.55;;
73823;SDS011;62154;54.914;73.444;2022-11-20T07:08:38;16.15;;;4.88;;
73823;SDS011;62154;54.914;73.444;2022-11-20T07:11:11;14.20;;;5.35;;
73823;SDS011;62154;54.914;73.444;2022-11-20T07:13:39;19.38;;;5.68;;
73823;SDS011;62154;54.914;73.444;2022-11-20T07:16:11;15.82;;;6.10;;
73823;SDS011;62154;54.914;73.444;2022-11-20T07:18:43;16.80;;;5.18;;
73823;SDS011;62154;54.914;73.444;2022-11-20T07:21:11;45.05;;;17.92;;
73823;SDS011;62154;54.914;73.444;2022-11-20T07:23:38;13.88;;;5.50;;
73823;SDS011;62154;54.914;73.444;2022-11-20T07:26:10;13.23;;;3.83;;
73823;SDS011;62154;54.914;73.444;2022-11-20T07:28:38;21.33;;;6.32;;
73823;SDS011;62154;54.914;73.444;2022-11-20T07:31:08;17.48;;;6.13;;
73823;SDS011;62154;54.914;73.444;2022-11-20T07:33:35;16.45;;;6.03;;
73823;SDS011;62154;54.914;73.444;2022-11-20T07:36:02;21.27;;;7.38;;
73823;SDS011;62154;54.914;73.444;2022-11-20T07:38:31;28.60;;;9.52;;
73823;SDS011;62154;54.914;73.444;2022-11-20T07:40:58;20.27;;;7.22;;
73823;SDS011;62154;54.914;73.444;2022-11-20T07:43:27;18.90;;;7.05;;
73823;SDS011;62154;54.914;73.444;2022-11-20T07:45:58;24.02;;;9.15;;
73823;SDS011;62154;54.914;73.444;2022-11-20T07:48:25;27.38;;;9.35;;
73823;SDS011;62154;54.914;73.444;2022-11-20T07:50:53;31.05;;;10.93;;
73823;SDS011;62154;54.914;73.444;2022-11-20T07:53:31;12.57;;;5.88;;
73823;SDS011;62154;54.914;73.444;2022-11-20T07:56:00;20.48;;;6.70;;
73823;SDS011;62154;54.914;73.444;2022-11-20T07:58:30;19.10;;;6.03;;
73823;SDS011;62154;54.914;73.444;2022-11-20T08:01:09;14.05;;;5.63;;
73823;SDS011;62154;54.914;73.444;2022-11-20T08:03:37;16.38;;;6.07;;
73823;SDS011;62154;54.914;73.444;2022-11-20T08:06:04;18.45;;;7.43;;
73823;SDS011;62154;54.914;73.444;2022-11-20T08:08:31;27.92;;;9.40;;
73823;SDS011;62154;54.914;73.444;2022-11-20T08:11:04;15.63;;;6.40;;
73823;SDS011;62154;54.914;73.444;2022-11-20T08:13:49;12.48;;;4.30;;
73823;SDS011;62154;54.914;73.444;2022-11-20T08:16:35;18.05;;;7.90;;
73823;SDS011;62154;54.914;73.444;2022-11-20T08:19:02;13.07;;;5.10;;
73823;SDS011;62154;54.914;73.444;2022-11-20T08:21:40;11.82;;;5.80;;
73823;SDS011;62154;54.914;73.444;2022-11-20T08:24:10;16.17;;;7.30;;
73823;SDS011;62154;54.914;73.444;2022-11-20T08:26:38;30.80;;;13.27;;
73823;SDS011;62154;54.914;73.444;2022-11-20T08:29:06;14.65;;;6.28;;
73823;SDS011;62154;54.914;73.444;2022-11-20T08:31:33;30.98;;;11.43;;
73823;SDS011;62154;54.914;73.444;2022-11-20T08:34:04;15.30;;;5.70;;
73823;SDS011;62154;54.914;73.444;2022-11-20T08:36:32;24.20;;;7.72;;
73823;SDS011;62154;54.914;73.444;2022-11-20T08:39:03;12.90;;;4.45;;
73823;SDS011;62154;54.914;73.444;2022-11-20T08:41:30;21.80;;;7.70;;
73823;SDS011;62154;54.914;73.444;2022-11-20T08:44:10;8.43;;;4.13;;
73823;SDS011;62154;54.914;73.444;2022-11-20T08:46:48;11.85;;;4.53;;
73823;SDS011;62154;54.914;73.444;2022-11-20T08:49:15;10.30;;;4.63;;
73823;SDS011;62154;54.914;73.444;2022-11-20T08:51:43;10.80;;;4.90;;
73823;SDS011;62154;54.914;73.444;2022-11-20T08:54:19;20.75;;;8.70;;
73823;SDS011;62154;54.914;73.444;2022-11-20T08:56:50;14.95;;;6.80;;
73823;SDS011;62154;54.914;73.444;2022-11-20T08:59:18;20.27;;;8.25;;
73823;SDS011;62154;54.914;73.444;2022-11-20T09:01:55;31.33;;;14.02;;
73823;SDS011;62154;54.914;73.444;2022-11-20T09:04:22;40.53;;;14.50;;
73823;SDS011;62154;54.914;73.444;2022-11-20T09:06:54;52.33;;;17.90;;
73823;SDS011;62154;54.914;73.444;2022-11-20T09:09:32;20.73;;;7.45;;
73823;SDS011;62154;54.914;73.444;2022-11-20T09:12:09;17.73;;;7.22;;
73823;SDS011;62154;54.914;73.444;2022-11-20T09:14:36;16.40;;;7.00;;
73823;SDS011;62154;54.914;73.444;2022-11-20T09:17:12;12.60;;;4.55;;
73823;SDS011;62154;54.914;73.444;2022-11-20T09:19:41;22.58;;;6.80;;
73823;SDS011;62154;54.914;73.444;2022-11-20T09:22:12;20.20;;;7.53;;
73823;SDS011;62154;54.914;73.444;2022-11-20T09:24:45;49.25;;;19.48;;
73823;SDS011;62154;54.914;73.444;2022-11-20T09:27:18;24.80;;;8.93;;
73823;SDS011;62154;54.914;73.444;2022-11-20T09:29:49;25.10;;;7.32;;
73823;SDS011;62154;54.914;73.444;2022-11-20T09:32:17;23.73;;;8.77;;
73823;SDS011;62154;54.914;73.444;2022-11-20T09:34:44;41.97;;;14.85;;
73823;SDS011;62154;54.914;73.444;2022-11-20T09:37:11;36.17;;;16.77;;
73823;SDS011;62154;54.914;73.444;2022-11-20T09:39:38;19.17;;;7.70;;
73823;SDS011;62154;54.914;73.444;2022-11-20T09:45:14;60.75;;;25.98;;
73823;SDS011;62154;54.914;73.444;2022-11-20T09:51:33;22.67;;;9.52;;
73823;SDS011;62154;54.914;73.444;2022-11-20T09:56:50;50.33;;;22.45;;
73823;SDS011;62154;54.914;73.444;2022-11-20T10:02:25;23.60;;;9.77;;
73823;SDS011;62154;54.914;73.444;2022-11-20T10:04:59;27.48;;;8.85;;
73823;SDS011;62154;54.914;73.444;2022-11-20T10:07:53;50.92;;;24.02;;
73823;SDS011;62154;54.914;73.444;2022-11-20T10:10:30;27.10;;;10.90;;
73823;SDS011;62154;54.914;73.444;2022-11-20T10:16:21;14.88;;;5.97;;
73823;SDS011;62154;54.914;73.444;2022-11-20T10:22:04;12.85;;;6.50;;
73823;SDS011;62154;54.914;73.444;2022-11-20T10:27:37;17.60;;;7.10;;
73823;SDS011;62154;54.914;73.444;2022-11-20T10:30:13;51.42;;;13.98;;
73823;SDS011;62154;54.914;73.444;2022-11-20T10:32:47;83.53;;;19.00;;
73823;SDS011;62154;54.914;73.444;2022-11-20T10:35:33;56.80;;;13.77;;
73823;SDS011;62154;54.914;73.444;2022-11-20T10:38:05;36.97;;;13.82;;
73823;SDS011;62154;54.914;73.444;2022-11-20T10:41:01;42.53;;;17.10;;
73823;SDS011;62154;54.914;73.444;2022-11-20T10:44:17;39.65;;;11.43;;
73823;SDS011;62154;54.914;73.444;2022-11-20T10:47:03;24.75;;;7.25;;
73823;SDS011;62154;54.914;73.444;2022-11-20T10:49:32;16.80;;;8.02;;
73823;SDS011;62154;54.914;73.444;2022-11-20T10:55:03;38.22;;;11.35;;
73823;SDS011;62154;54.914;73.444;2022-11-20T10:57:57;20.02;;;8.07;;
73823;SDS011;62154;54.914;73.444;2022-11-20T11:00:46;18.60;;;7.15;;
73823;SDS011;62154;54.914;73.444;2022-11-20T11:03:35;16.27;;;6.40;;
73823;SDS011;62154;54.914;73.444;2022-11-20T11:09:00;20.73;;;7.55;;
73823;SDS011;62154;54.914;73.444;2022-11-20T11:11:37;16.10;;;6.63;;
73823;SDS011;62154;54.914;73.444;2022-11-20T11:14:06;19.73;;;6.05;;
73823;SDS011;62154;54.914;73.444;2022-11-20T11:19:27;16.35;;;6.15;;
73823;SDS011;62154;54.914;73.444;2022-11-20T11:22:00;18.67;;;7.05;;
73823;SDS011;62154;54.914;73.444;2022-11-20T11:24:36;20.17;;;6.93;;
73823;SDS011;62154;54.914;73.444;2022-11-20T11:27:10;15.35;;;5.22;;
73823;SDS011;62154;54.914;73.444;2022-11-20T11:29:39;21.45;;;7.55;;
73823;SDS011;62154;54.914;73.444;2022-11-20T11:32:07;21.10;;;6.72;;
73823;SDS011;62154;54.914;73.444;2022-11-20T11:35:07;30.42;;;11.65;;
73823;SDS011;62154;54.914;73.444;2022-11-20T11:37:52;47.35;;;15.00;;
73823;SDS011;62154;54.914;73.444;2022-11-20T11:40:37;26.27;;;10.23;;
73823;SDS011;62154;54.914;73.444;2022-11-20T11:43:15;29.60;;;10.63;;
73823;SDS011;62154;54.914;73.444;2022-11-20T11:46:30;25.08;;;8.68;;
73823;SDS011;62154;54.914;73.444;2022-11-20T11:48:58;29.48;;;9.48;;
73823;SDS011;62154;54.914;73.444;2022-11-20T11:51:28;18.95;;;9.10;;
73823;SDS011;62154;54.914;73.444;2022-11-20T11:54:14;19.60;;;7.70;;
73823;SDS011;62154;54.914;73.444;2022-11-20T11:59:32;42.20;;;15.70;;
73823;SDS011;62154;54.914;73.444;2022-11-20T12:05:16;64.35;;;19.77;;
73823;SDS011;62154;54.914;73.444;2022-11-20T12:08:05;24.85;;;8.07;;
73823;SDS011;62154;54.914;73.444;2022-11-20T12:10:53;24.77;;;10.90;;
73823;SDS011;62154;54.914;73.444;2022-11-20T12:16:39;23.95;;;9.32;;
73823;SDS011;62154;54.914;73.444;2022-11-20T12:19:16;20.65;;;8.85;;
73823;SDS011;62154;54.914;73.444;2022-11-20T12:30:23;43.25;;;14.15;;
73823;SDS011;62154;54.914;73.444;2022-11-20T12:45:14;64.68;;;21.42;;
73823;SDS011;62154;54.914;73.444;2022-11-20T12:50:47;43.95;;;14.68;;
73823;SDS011;62154;54.914;73.444;2022-11-20T13:08:12;33.15;;;11.30;;
73823;SDS011;62154;54.914;73.444;2022-11-20T13:10:56;27.95;;;11.07;;
73823;SDS011;62154;54.914;73.444;2022-11-20T13:16:38;29.48;;;10.05;;
73823;SDS011;62154;54.914;73.444;2022-11-20T13:19:26;22.17;;;8.60;;
73823;SDS011;62154;54.914;73.444;2022-11-20T13:22:00;37.20;;;11.35;;
73823;SDS011;62154;54.914;73.444;2022-11-20T13:24:29;42.08;;;15.43;;
73823;SDS011;62154;54.914;73.444;2022-11-20T13:29:37;25.30;;;10.68;;
73823;SDS011;62154;54.914;73.444;2022-11-20T13:32:16;39.30;;;14.80;;
73823;SDS011;62154;54.914;73.444;2022-11-20T13:34:57;20.23;;;8.70;;
73823;SDS011;62154;54.914;73.444;2022-11-20T13:37:36;61.13;;;22.48;;
73823;SDS011;62154;54.914;73.444;2022-11-20T13:46:06;36.85;;;18.50;;
73823;SDS011;62154;54.914;73.444;2022-11-20T13:48:39;28.17;;;11.02;;
73823;SDS011;62154;54.914;73.444;2022-11-20T13:57:35;60.78;;;17.98;;
73823;SDS011;62154;54.914;73.444;2022-11-20T14:05:30;40.35;;;14.57;;
73823;SDS011;62154;54.914;73.444;2022-11-20T14:08:04;38.65;;;11.45;;
73823;SDS011;62154;54.914;73.444;2022-11-20T14:10:38;46.42;;;15.68;;
73823;SDS011;62154;54.914;73.444;2022-11-20T14:13:15;36.63;;;14.30;;
73823;SDS011;62154;54.914;73.444;2022-11-20T14:18:14;48.05;;;15.32;;
73823;SDS011;62154;54.914;73.444;2022-11-20T14:20:51;39.70;;;14.02;;
73823;SDS011;62154;54.914;73.444;2022-11-20T14:23:28;72.30;;;21.20;;
73823;SDS011;62154;54.914;73.444;2022-11-20T14:25:56;58.50;;;19.30;;
73823;SDS011;62154;54.914;73.444;2022-11-20T14:28:30;42.28;;;15.35;;
73823;SDS011;62154;54.914;73.444;2022-11-20T14:30:58;55.75;;;20.35;;
73823;SDS011;62154;54.914;73.444;2022-11-20T14:33:25;49.95;;;16.92;;
73823;SDS011;62154;54.914;73.444;2022-11-20T14:35:54;46.63;;;18.42;;
73823;SDS011;62154;54.914;73.444;2022-11-20T14:38:28;78.70;;;25.42;;
73823;SDS011;62154;54.914;73.444;2022-11-20T14:41:08;128.05;;;39.78;;
73823;SDS011;62154;54.914;73.444;2022-11-20T14:43:56;51.67;;;21.38;;
73823;SDS011;62154;54.914;73.444;2022-11-20T14:46:24;122.93;;;32.97;;
73823;SDS011;62154;54.914;73.444;2022-11-20T14:48:55;100.10;;;25.23;;
73823;SDS011;62154;54.914;73.444;2022-11-20T14:51:40;97.03;;;27.25;;
73823;SDS011;62154;54.914;73.444;2022-11-20T14:54:19;61.40;;;18.63;;
73823;SDS011;62154;54.914;73.444;2022-11-20T14:57:02;52.88;;;16.73;;
73823;SDS011;62154;54.914;73.444;2022-11-20T14:59:32;58.42;;;19.20;;
73823;SDS011;62154;54.914;73.444;2022-11-20T15:02:11;61.67;;;18.98;;
73823;SDS011;62154;54.914;73.444;2022-11-20T15:04:51;56.95;;;18.60;;
73823;SDS011;62154;54.914;73.444;2022-11-20T15:12:38;39.60;;;13.50;;
73823;SDS011;62154;54.914;73.444;2022-11-20T15:15:25;41.17;;;12.67;;
73823;SDS011;62154;54.914;73.444;2022-11-20T15:18:14;48.67;;;15.18;;
73823;SDS011;62154;54.914;73.444;2022-11-20T15:20:44;30.17;;;13.48;;
73823;SDS011;62154;54.914;73.444;2022-11-20T15:23:14;24.67;;;10.82;;
73823;SDS011;62154;54.914;73.444;2022-11-20T15:25:45;31.08;;;10.70;;
73823;SDS011;62154;54.914;73.444;2022-11-20T15:28:58;97.43;;;29.65;;
73823;SDS011;62154;54.914;73.444;2022-11-20T15:31:15;45.83;;;16.33;;
73823;SDS011;62154;54.914;73.444;2022-11-20T15:33:44;67.43;;;19.98;;
73823;SDS011;62154;54.914;73.444;2022-11-20T15:36:16;86.30;;;26.85;;
73823;SDS011;62154;54.914;73.444;2022-11-20T15:38:44;86.47;;;25.02;;
73823;SDS011;62154;54.914;73.444;2022-11-20T15:41:11;95.70;;;28.00;;
73823;SDS011;62154;54.914;73.444;2022-11-20T15:43:38;76.07;;;20.75;;
73823;SDS011;62154;54.914;73.444;2022-11-20T15:46:06;100.07;;;29.38;;
73823;SDS011;62154;54.914;73.444;2022-11-20T15:48:39;57.13;;;20.25;;
73823;SDS011;62154;54.914;73.444;2022-11-20T15:51:29;48.92;;;15.50;;
73823;SDS011;62154;54.914;73.444;2022-11-20T15:53:56;70.97;;;22.85;;
73823;SDS011;62154;54.914;73.444;2022-11-20T15:56:24;73.78;;;22.92;;
73823;SDS011;62154;54.914;73.444;2022-11-20T15:58:52;43.60;;;15.90;;
73823;SDS011;62154;54.914;73.444;2022-11-20T16:01:22;43.08;;;14.32;;
73823;SDS011;62154;54.914;73.444;2022-11-20T16:03:49;57.67;;;18.10;;
73823;SDS011;62154;54.914;73.444;2022-11-20T16:06:16;53.65;;;16.55;;
73823;SDS011;62154;54.914;73.444;2022-11-20T16:08:44;26.30;;;10.55;;
73823;SDS011;62154;54.914;73.444;2022-11-20T16:11:16;32.40;;;11.57;;
73823;SDS011;62154;54.914;73.444;2022-11-20T16:13:44;38.17;;;11.95;;
73823;SDS011;62154;54.914;73.444;2022-11-20T16:19:10;38.63;;;14.88;;
73823;SDS011;62154;54.914;73.444;2022-11-20T16:21:38;102.65;;;30.52;;
73823;SDS011;62154;54.914;73.444;2022-11-20T16:24:09;114.57;;;33.22;;
73823;SDS011;62154;54.914;73.444;2022-11-20T16:26:39;61.83;;;19.77;;
73823;SDS011;62154;54.914;73.444;2022-11-20T16:29:06;59.25;;;19.13;;
73823;SDS011;62154;54.914;73.444;2022-11-20T16:31:45;76.82;;;23.17;;
73823;SDS011;62154;54.914;73.444;2022-11-20T16:34:12;80.65;;;25.35;;
73823;SDS011;62154;54.914;73.444;2022-11-20T16:36:42;43.75;;;16.25;;